Time;durP1;ratioP1;P1;durP2;ratioP2;P2;SDS_P1;SDS_P2;PMS_P1;PMS_P2;Temp;Humidity;BMP_temperature;BMP_pressure;BME280_temperature;BME280_humidity;BME280_pressure;Samples;Min_cycle;Max_cycle;Signal;HPM_P1;HPM_P2
2023/10/24 00:00:19;;;;;;;3.90;1.47;;;17.70;99.90;;;;;;5052992;28;20486;-87
2023/10/24 00:02:44;;;;;;;1.40;1.30;;;17.70;99.90;;;;;;5042338;28;20191;-87
2023/10/24 00:05:10;;;;;;;2.87;1.37;;;17.70;99.90;;;;;;5066922;28;20191;-87
2023/10/24 00:07:35;;;;;;;1.40;1.20;;;17.70;99.90;;;;;;5044672;28;20449;-88
2023/10/24 00:10:02;;;;;;;1.90;1.30;;;17.70;99.90;;;;;;5046543;28;20230;-87
2023/10/24 00:12:29;;;;;;;1.47;1.37;;;17.60;99.90;;;;;;5046892;28;20582;-87
2023/10/24 00:14:56;;;;;;;2.23;1.43;;;17.60;99.90;;;;;;5045604;28;20610;-88
2023/10/24 00:17:22;;;;;;;2.67;1.30;;;17.70;99.90;;;;;;5053032;28;20172;-87
2023/10/24 00:19:48;;;;;;;1.50;1.40;;;17.60;99.90;;;;;;5044951;28;20184;-87
2023/10/24 00:22:13;;;;;;;1.67;1.33;;;17.60;99.90;;;;;;5054895;28;20408;-87
2023/10/24 00:24:39;;;;;;;1.73;1.30;;;17.60;99.90;;;;;;5044252;28;20179;-87
2023/10/24 00:27:05;;;;;;;2.27;1.30;;;17.60;99.90;;;;;;5054548;28;20171;-87
2023/10/24 00:29:32;;;;;;;3.47;1.50;;;17.70;99.90;;;;;;5043031;28;20386;-87
2023/10/24 00:31:57;;;;;;;1.50;1.27;;;17.60;99.90;;;;;;5033687;28;20279;-87
2023/10/24 00:34:23;;;;;;;1.63;1.50;;;17.70;99.90;;;;;;5043693;28;20259;-87
2023/10/24 00:36:49;;;;;;;1.50;1.30;;;17.70;99.90;;;;;;5032584;28;20187;-87
2023/10/24 00:39:15;;;;;;;1.40;1.30;;;17.60;99.90;;;;;;5044726;28;20191;-87
2023/10/24 00:41:40;;;;;;;1.70;1.40;;;17.60;99.90;;;;;;5045635;28;20590;-86
2023/10/24 00:44:07;;;;;;;2.30;1.40;;;17.60;99.90;;;;;;5042871;28;20246;-88
2023/10/24 00:46:39;;;;;;;1.20;1.07;;;17.60;99.90;;;;;;5050116;28;20486;-88
2023/10/24 00:49:06;;;;;;;1.53;1.40;;;17.60;99.90;;;;;;5049014;28;20315;-88
2023/10/24 00:51:32;;;;;;;1.73;1.17;;;17.60;99.90;;;;;;5037277;28;20181;-88
2023/10/24 00:53:59;;;;;;;2.87;1.40;;;17.60;99.90;;;;;;5039410;28;20176;-88
2023/10/24 00:56:27;;;;;;;1.77;1.20;;;17.60;99.90;;;;;;5041444;28;20234;-88
2023/10/24 00:58:53;;;;;;;1.60;1.40;;;17.60;99.90;;;;;;5036724;28;20292;-87
2023/10/24 01:01:20;;;;;;;1.40;1.30;;;17.70;99.90;;;;;;5047633;28;20215;-88
2023/10/24 01:03:48;;;;;;;2.07;1.30;;;17.60;99.90;;;;;;5052396;28;20467;-88
2023/10/24 01:06:17;;;;;;;2.10;1.40;;;17.60;99.90;;;;;;5047602;28;20180;-88
2023/10/24 01:08:43;;;;;;;1.10;1.00;;;17.60;99.90;;;;;;5036742;28;20191;-88
2023/10/24 01:11:11;;;;;;;1.67;1.23;;;17.60;99.90;;;;;;5047042;28;20182;-88
2023/10/24 01:13:37;;;;;;;3.00;1.30;;;17.60;99.90;;;;;;5035946;28;20251;-88
2023/10/24 01:16:03;;;;;;;1.40;1.30;;;17.60;99.90;;;;;;5037196;28;20271;-87
2023/10/24 01:18:28;;;;;;;1.57;1.27;;;17.60;99.90;;;;;;5033018;28;20555;-88
2023/10/24 01:20:54;;;;;;;1.30;1.17;;;17.60;99.90;;;;;;5045542;28;20207;-88
2023/10/24 01:23:21;;;;;;;2.03;1.20;;;17.60;99.90;;;;;;5034113;28;20602;-88
2023/10/24 01:25:50;;;;;;;1.63;1.07;;;17.60;99.90;;;;;;5034498;28;20177;-88
2023/10/24 01:28:18;;;;;;;1.60;1.37;;;17.60;99.90;;;;;;5034259;28;20191;-88
2023/10/24 01:30:44;;;;;;;1.40;1.20;;;17.60;99.90;;;;;;5043846;28;20180;-88
2023/10/24 01:33:10;;;;;;;2.70;1.20;;;17.60;99.90;;;;;;5054618;28;20188;-88
2023/10/24 01:35:35;;;;;;;2.47;1.20;;;17.60;99.90;;;;;;5046287;28;20176;-88
2023/10/24 01:38:01;;;;;;;1.87;1.40;;;17.60;99.90;;;;;;5050160;28;20199;-88
2023/10/24 01:40:26;;;;;;;1.90;1.20;;;17.70;99.90;;;;;;5052810;28;20439;-88
2023/10/24 01:42:53;;;;;;;2.10;1.20;;;17.60;99.90;;;;;;5042636;28;20173;-88
2023/10/24 01:45:20;;;;;;;1.37;1.27;;;17.60;99.90;;;;;;5037119;28;20215;-89
2023/10/24 01:47:45;;;;;;;1.30;1.20;;;17.60;99.90;;;;;;5043305;28;20194;-89
2023/10/24 01:50:11;;;;;;;2.30;1.20;;;17.60;99.90;;;;;;5034649;28;20292;-88
2023/10/24 01:52:37;;;;;;;1.53;1.20;;;17.70;99.90;;;;;;5045622;28;20176;-88
2023/10/24 01:55:03;;;;;;;1.83;1.20;;;17.60;99.90;;;;;;5035575;28;20197;-88
2023/10/24 01:57:29;;;;;;;1.20;1.10;;;17.60;99.90;;;;;;5044560;28;20212;-88
2023/10/24 01:59:54;;;;;;;1.60;1.20;;;17.60;99.90;;;;;;5033169;28;20238;-88
2023/10/24 02:02:20;;;;;;;1.10;1.00;;;17.60;99.90;;;;;;5037308;28;20646;-88
2023/10/24 02:04:46;;;;;;;1.10;1.00;;;17.60;99.90;;;;;;5035476;28;20179;-88
2023/10/24 02:07:12;;;;;;;1.30;1.20;;;17.60;99.90;;;;;;5046643;28;20367;-88
2023/10/24 02:09:38;;;;;;;1.33;1.13;;;17.60;99.90;;;;;;5033861;28;20269;-88
2023/10/24 02:12:04;;;;;;;1.30;1.20;;;17.60;99.90;;;;;;5037668;28;20613;-88
2023/10/24 02:14:29;;;;;;;1.10;1.00;;;17.60;99.90;;;;;;5051801;28;20184;-88
2023/10/24 02:16:56;;;;;;;1.60;1.40;;;17.60;99.90;;;;;;5045324;28;20211;-89
2023/10/24 02:19:21;;;;;;;2.30;1.30;;;17.60;99.90;;;;;;5047856;28;20183;-88
2023/10/24 02:21:48;;;;;;;1.10;1.00;;;17.60;99.90;;;;;;5049927;28;20212;-89
2023/10/24 02:24:14;;;;;;;2.50;1.17;;;17.60;99.90;;;;;;5043559;28;20177;-89
2023/10/24 02:26:40;;;;;;;1.07;0.97;;;17.60;99.90;;;;;;5037575;28;20196;-89
2023/10/24 02:29:06;;;;;;;1.10;1.00;;;17.60;99.90;;;;;;5044654;28;20254;-89
2023/10/24 02:31:31;;;;;;;2.10;1.10;;;17.60;99.90;;;;;;5036621;28;20198;-89
2023/10/24 02:33:57;;;;;;;1.27;1.17;;;17.60;99.90;;;;;;5042914;28;20186;-89
2023/10/24 02:36:23;;;;;;;1.83;1.13;;;17.60;99.90;;;;;;5054603;28;20200;-89
2023/10/24 02:38:49;;;;;;;1.47;1.20;;;17.60;99.90;;;;;;5043868;28;20200;-89
2023/10/24 02:41:14;;;;;;;1.97;1.17;;;17.60;99.90;;;;;;5043754;28;20203;-89
2023/10/24 02:43:40;;;;;;;1.63;1.20;;;17.60;99.90;;;;;;5040722;28;20547;-89
2023/10/24 02:46:07;;;;;;;1.20;1.00;;;17.60;99.90;;;;;;5053109;28;20326;-89
2023/10/24 02:48:33;;;;;;;1.40;1.00;;;17.60;99.90;;;;;;5042061;28;20172;-89
2023/10/24 02:50:59;;;;;;;1.93;1.37;;;17.60;99.90;;;;;;5071794;28;20241;-89
2023/10/24 02:53:25;;;;;;;1.20;1.10;;;17.60;99.90;;;;;;5044207;28;20230;-89
2023/10/24 02:55:51;;;;;;;2.03;1.17;;;17.60;99.90;;;;;;5052695;28;20186;-89
2023/10/24 02:58:18;;;;;;;1.30;1.10;;;17.60;99.90;;;;;;5046959;28;20597;-88
2023/10/24 03:00:44;;;;;;;1.30;1.20;;;17.60;99.90;;;;;;5047991;28;20306;-89
2023/10/24 03:03:11;;;;;;;1.10;1.00;;;17.60;99.90;;;;;;5047369;28;20188;-89
2023/10/24 03:05:37;;;;;;;1.13;1.03;;;17.60;99.90;;;;;;5046072;28;20182;-88
2023/10/24 03:08:03;;;;;;;1.17;0.93;;;17.60;99.90;;;;;;5049587;28;20164;-88
2023/10/24 03:10:29;;;;;;;1.17;1.07;;;17.60;99.90;;;;;;5042140;28;20462;-88
2023/10/24 03:12:55;;;;;;;1.10;1.00;;;17.60;99.90;;;;;;5051936;28;20169;-88
2023/10/24 03:15:21;;;;;;;3.50;1.00;;;17.60;99.90;;;;;;5042604;28;20572;-88
2023/10/24 03:17:47;;;;;;;1.20;1.10;;;17.60;99.90;;;;;;5053038;28;20218;-88
2023/10/24 03:20:13;;;;;;;2.23;1.10;;;17.60;99.90;;;;;;5045196;28;20192;-88
2023/10/24 03:22:39;;;;;;;1.10;1.00;;;17.60;99.90;;;;;;5034525;28;20624;-88
2023/10/24 03:25:06;;;;;;;0.83;0.83;;;17.60;99.90;;;;;;5040031;28;20176;-88
2023/10/24 03:27:31;;;;;;;1.30;1.00;;;17.60;99.90;;;;;;5053693;28;20242;-87
2023/10/24 03:29:58;;;;;;;2.30;1.00;;;17.60;99.90;;;;;;5039906;28;20536;-89
2023/10/24 03:32:23;;;;;;;1.20;1.10;;;17.60;99.90;;;;;;5051529;28;20172;-88
2023/10/24 03:34:49;;;;;;;2.03;0.97;;;17.60;99.90;;;;;;5041240;28;20187;-89
2023/10/24 03:37:17;;;;;;;1.20;0.93;;;17.60;99.90;;;;;;5047281;28;20168;-89
2023/10/24 03:39:43;;;;;;;1.07;0.87;;;17.60;99.90;;;;;;5039897;28;20451;-89
2023/10/24 03:42:13;;;;;;;1.13;1.03;;;17.60;99.90;;;;;;5028424;28;20204;-89
2023/10/24 03:44:39;;;;;;;1.10;1.00;;;17.60;99.90;;;;;;5034569;28;20169;-89
2023/10/24 03:47:05;;;;;;;1.57;1.00;;;17.60;99.90;;;;;;5035712;28;20279;-89
2023/10/24 03:49:31;;;;;;;1.23;1.00;;;17.60;99.90;;;;;;5034366;28;20171;-89
2023/10/24 03:51:57;;;;;;;1.40;1.10;;;17.60;99.90;;;;;;5038992;28;20184;-89
2023/10/24 03:54:23;;;;;;;1.30;1.07;;;17.60;99.90;;;;;;5018877;28;20174;-88
2023/10/24 03:56:49;;;;;;;2.17;1.17;;;17.60;99.90;;;;;;5044127;28;20188;-89
2023/10/24 03:59:14;;;;;;;1.20;1.03;;;17.60;99.90;;;;;;5033331;28;20183;-88
2023/10/24 04:01:41;;;;;;;1.20;1.07;;;17.60;99.90;;;;;;5044019;28;20406;-89
2023/10/24 04:04:07;;;;;;;1.20;0.83;;;17.60;99.90;;;;;;5034898;28;20181;-89
2023/10/24 04:06:35;;;;;;;0.97;0.90;;;17.60;99.90;;;;;;5042010;28;20645;-89
2023/10/24 04:09:04;;;;;;;1.43;1.20;;;17.60;99.90;;;;;;5056533;28;20183;-89
2023/10/24 04:11:31;;;;;;;1.10;1.00;;;17.60;99.90;;;;;;5042198;28;20172;-89
2023/10/24 04:13:58;;;;;;;1.17;1.07;;;17.60;99.90;;;;;;5056405;28;20519;-89
2023/10/24 04:16:23;;;;;;;1.40;1.10;;;17.60;99.90;;;;;;5042064;28;20180;-89
2023/10/24 04:18:49;;;;;;;1.07;1.00;;;17.60;99.90;;;;;;5053272;28;20183;-88
2023/10/24 04:21:16;;;;;;;2.63;1.00;;;17.60;99.90;;;;;;5045531;28;20216;-88
2023/10/24 04:23:42;;;;;;;1.23;0.80;;;17.60;99.90;;;;;;5049048;28;20316;-88
2023/10/24 04:26:07;;;;;;;2.37;0.97;;;17.60;99.90;;;;;;5044842;28;20652;-88
2023/10/24 04:28:33;;;;;;;0.93;0.83;;;17.60;99.90;;;;;;5046592;28;20416;-88
2023/10/24 04:30:59;;;;;;;1.37;1.00;;;17.60;99.90;;;;;;5046098;28;20211;-87
2023/10/24 04:33:25;;;;;;;1.10;1.00;;;17.60;99.90;;;;;;5044327;28;20216;-88
2023/10/24 04:35:51;;;;;;;1.40;1.10;;;17.60;99.90;;;;;;5050944;28;20179;-88
2023/10/24 04:38:20;;;;;;;0.97;0.90;;;17.60;99.90;;;;;;5040366;28;20268;-88
2023/10/24 04:40:46;;;;;;;1.00;0.90;;;17.60;99.90;;;;;;5045756;28;20443;-89
2023/10/24 04:43:12;;;;;;;1.40;1.00;;;17.60;99.90;;;;;;5040227;28;20173;-89
2023/10/24 04:45:38;;;;;;;1.13;0.90;;;17.60;99.90;;;;;;5031363;28;20271;-89
2023/10/24 04:48:04;;;;;;;1.13;1.03;;;17.60;99.90;;;;;;5036860;28;20177;-89
2023/10/24 04:50:31;;;;;;;1.00;0.90;;;17.60;99.90;;;;;;5051779;28;20187;-89
2023/10/24 04:52:57;;;;;;;0.90;0.90;;;17.60;99.90;;;;;;5044829;28;20510;-89
2023/10/24 04:55:23;;;;;;;1.10;1.00;;;17.60;99.90;;;;;;5033104;28;20187;-89
2023/10/24 04:57:49;;;;;;;1.20;1.00;;;17.60;99.90;;;;;;5046081;28;20173;-89
2023/10/24 05:00:49;;;;;;;1.00;0.90;;;17.60;99.90;;;;;;5031224;28;20196;-90
2023/10/24 05:03:15;;;;;;;1.90;1.10;;;17.60;99.90;;;;;;5058416;28;20245;-87
2023/10/24 05:05:41;;;;;;;1.30;1.00;;;17.60;99.90;;;;;;5030075;28;20181;-88
2023/10/24 05:08:10;;;;;;;2.17;1.00;;;17.60;99.90;;;;;;5042559;28;20188;-87
2023/10/24 05:10:35;;;;;;;1.10;1.00;;;17.60;99.90;;;;;;5031019;28;20173;-87
2023/10/24 05:13:01;;;;;;;2.17;1.00;;;17.60;99.90;;;;;;5034010;28;20183;-88
2023/10/24 05:15:27;;;;;;;1.67;1.00;;;17.60;99.90;;;;;;5046624;28;20187;-87
2023/10/24 05:17:53;;;;;;;0.83;0.83;;;17.60;99.90;;;;;;5042490;28;20449;-87
2023/10/24 05:20:19;;;;;;;1.03;0.93;;;17.60;99.90;;;;;;5045180;28;20272;-87
2023/10/24 05:22:44;;;;;;;1.10;1.00;;;17.60;99.90;;;;;;5044716;28;20172;-87
2023/10/24 05:25:10;;;;;;;1.60;1.10;;;17.60;99.90;;;;;;5041772;28;20173;-87
2023/10/24 05:27:36;;;;;;;1.87;1.00;;;17.60;99.90;;;;;;5044768;28;20169;-87
2023/10/24 05:30:01;;;;;;;1.53;1.20;;;17.60;99.90;;;;;;5039637;28;20223;-87
2023/10/24 05:32:27;;;;;;;1.33;1.13;;;17.60;99.90;;;;;;5030760;28;20341;-87
2023/10/24 05:34:53;;;;;;;1.73;1.07;;;17.60;99.90;;;;;;5035950;28;20330;-87
2023/10/24 05:37:19;;;;;;;1.33;1.00;;;17.60;99.90;;;;;;5046582;28;20205;-87
2023/10/24 05:39:44;;;;;;;1.10;1.00;;;17.60;99.90;;;;;;5032143;28;20775;-87
2023/10/24 05:42:11;;;;;;;3.03;1.20;;;17.60;99.90;;;;;;5027426;28;20267;-87
2023/10/24 05:44:37;;;;;;;2.03;1.27;;;17.60;99.90;;;;;;5055051;28;20184;-87
2023/10/24 05:47:02;;;;;;;2.33;1.00;;;17.60;99.90;;;;;;5028816;28;20231;-87
2023/10/24 05:49:29;;;;;;;1.27;1.00;;;17.60;99.90;;;;;;5035785;28;20198;-87
2023/10/24 05:51:55;;;;;;;1.77;0.93;;;17.60;99.90;;;;;;5027269;28;20207;-87
2023/10/24 05:54:21;;;;;;;2.47;0.90;;;17.60;99.90;;;;;;5033027;28;20278;-87
2023/10/24 05:56:46;;;;;;;1.23;0.93;;;17.60;99.90;;;;;;5028437;28;20173;-88
2023/10/24 05:59:12;;;;;;;1.37;1.03;;;17.60;99.90;;;;;;5049008;28;20362;-87
2023/10/24 06:01:37;;;;;;;2.30;1.30;;;17.70;99.90;;;;;;5033354;28;20216;-87
2023/10/24 06:04:04;;;;;;;3.07;0.93;;;17.60;99.90;;;;;;5030812;28;20181;-87
2023/10/24 06:06:29;;;;;;;2.43;1.40;;;17.70;99.90;;;;;;5037195;28;20186;-88
2023/10/24 06:08:55;;;;;;;3.07;1.30;;;17.70;99.90;;;;;;5030360;28;20472;-88
2023/10/24 06:11:21;;;;;;;3.50;1.50;;;17.70;99.90;;;;;;5045028;28;20177;-87
2023/10/24 06:13:47;;;;;;;2.30;1.33;;;17.70;99.90;;;;;;5029864;28;20188;-87
2023/10/24 06:16:14;;;;;;;3.60;1.50;;;17.70;99.90;;;;;;5036456;28;20165;-88
2023/10/24 06:18:40;;;;;;;2.30;1.57;;;17.70;99.90;;;;;;5023743;28;20180;-87
2023/10/24 06:21:06;;;;;;;2.67;1.37;;;17.70;99.90;;;;;;5038066;28;20200;-87
2023/10/24 06:23:34;;;;;;;4.43;1.43;;;17.70;99.90;;;;;;5027338;28;20639;-87
2023/10/24 06:26:00;;;;;;;2.53;1.30;;;17.70;99.90;;;;;;5038558;28;20172;-87
2023/10/24 06:28:26;;;;;;;5.80;2.43;;;17.70;99.90;;;;;;5026916;28;20421;-87
2023/10/24 06:30:59;;;;;;;4.93;1.80;;;17.70;99.90;;;;;;5035668;28;20187;-87
2023/10/24 06:33:30;;;;;;;5.87;1.47;;;17.70;99.90;;;;;;5005710;28;20452;-89
2023/10/24 06:35:56;;;;;;;5.00;1.60;;;17.70;99.90;;;;;;5030840;28;20187;-87
2023/10/24 06:38:22;;;;;;;2.70;1.37;;;17.70;99.90;;;;;;5027162;28;20196;-87
2023/10/24 06:40:48;;;;;;;2.83;1.60;;;17.70;99.90;;;;;;5026164;28;20459;-87
2023/10/24 06:43:13;;;;;;;3.37;1.57;;;17.70;99.90;;;;;;5041537;28;20333;-87
2023/10/24 06:45:41;;;;;;;3.50;1.50;;;17.70;99.90;;;;;;5038501;28;20165;-87
2023/10/24 06:48:07;;;;;;;3.80;1.40;;;17.70;99.90;;;;;;5039791;28;20175;-87
2023/10/24 06:50:34;;;;;;;2.80;1.53;;;17.70;99.90;;;;;;5042221;28;20412;-88
2023/10/24 06:52:59;;;;;;;4.53;1.30;;;17.70;99.90;;;;;;5035201;28;20169;-88
2023/10/24 06:55:25;;;;;;;5.80;1.60;;;17.70;99.90;;;;;;5027039;28;20175;-88
2023/10/24 06:57:51;;;;;;;3.70;1.40;;;17.70;99.90;;;;;;5035419;28;20535;-88
2023/10/24 07:00:20;;;;;;;3.50;1.27;;;17.70;99.90;;;;;;5042249;28;20169;-88
2023/10/24 07:02:46;;;;;;;1.77;1.10;;;17.70;99.90;;;;;;5055350;28;20215;-87
2023/10/24 07:05:11;;;;;;;2.63;1.50;;;17.70;99.90;;;;;;5027235;28;20527;-88
2023/10/24 07:07:38;;;;;;;3.90;1.30;;;17.70;99.90;;;;;;5033936;28;20164;-88
2023/10/24 07:10:06;;;;;;;3.47;1.60;;;17.70;99.90;;;;;;5042879;28;20183;-88
2023/10/24 07:12:32;;;;;;;2.97;1.30;;;17.70;99.90;;;;;;5030216;28;20357;-88
2023/10/24 07:14:58;;;;;;;2.93;1.30;;;17.70;99.90;;;;;;5044683;28;20262;-89
2023/10/24 07:17:24;;;;;;;1.97;1.13;;;17.70;99.90;;;;;;5039832;28;20260;-88
2023/10/24 07:19:50;;;;;;;1.97;1.30;;;17.80;99.90;;;;;;5025236;28;20235;-88
2023/10/24 07:22:16;;;;;;;2.90;1.50;;;17.80;99.90;;;;;;5027822;28;20200;-88
2023/10/24 07:24:41;;;;;;;2.63;1.30;;;17.70;99.90;;;;;;5041722;28;20266;-88
2023/10/24 07:27:09;;;;;;;2.27;1.17;;;17.80;99.90;;;;;;5037501;28;20554;-89
2023/10/24 07:29:35;;;;;;;2.13;1.40;;;17.80;99.90;;;;;;5026350;28;20161;-89
2023/10/24 07:32:00;;;;;;;2.93;1.40;;;17.80;99.90;;;;;;5031248;28;20634;-88
2023/10/24 07:34:26;;;;;;;2.27;1.40;;;17.80;99.90;;;;;;5038118;28;20597;-88
2023/10/24 07:36:52;;;;;;;2.73;1.10;;;17.80;99.90;;;;;;5028868;28;20169;-88
2023/10/24 07:39:17;;;;;;;2.70;1.10;;;17.80;99.90;;;;;;5036376;28;20193;-89
2023/10/24 07:41:43;;;;;;;1.53;1.10;;;17.80;99.90;;;;;;5037225;28;20499;-88
2023/10/24 07:44:09;;;;;;;1.53;1.00;;;17.80;99.90;;;;;;5040928;28;20171;-89
2023/10/24 07:46:34;;;;;;;1.40;1.03;;;17.80;99.90;;;;;;5043320;28;20175;-89
2023/10/24 07:49:00;;;;;;;2.53;1.30;;;17.80;99.90;;;;;;5035659;28;20240;-89
2023/10/24 07:51:27;;;;;;;1.60;0.90;;;17.80;99.90;;;;;;5024239;28;20172;-88
2023/10/24 07:53:54;;;;;;;1.40;1.10;;;17.80;99.90;;;;;;5053512;28;20358;-88
2023/10/24 07:56:20;;;;;;;1.67;0.90;;;17.80;99.90;;;;;;5026202;28;20172;-88
2023/10/24 07:58:46;;;;;;;2.00;0.80;;;17.80;99.90;;;;;;5036262;28;20206;-88
2023/10/24 08:01:12;;;;;;;2.20;1.10;;;17.80;99.90;;;;;;5025295;28;20297;-89
2023/10/24 08:03:37;;;;;;;1.70;1.10;;;17.80;99.90;;;;;;5029114;28;20173;-88
2023/10/24 08:06:04;;;;;;;1.47;1.00;;;17.80;99.90;;;;;;5041003;28;20183;-88
2023/10/24 08:08:29;;;;;;;1.50;1.00;;;17.80;99.90;;;;;;5037189;28;20276;-89
2023/10/24 08:10:55;;;;;;;1.37;1.10;;;17.80;99.90;;;;;;5038468;28;20360;-88
2023/10/24 08:13:21;;;;;;;1.50;1.00;;;17.80;99.90;;;;;;5039385;28;20477;-89
2023/10/24 08:15:51;;;;;;;2.33;1.20;;;17.80;99.90;;;;;;5033937;28;20451;-89
2023/10/24 08:18:17;;;;;;;1.57;1.20;;;17.80;99.90;;;;;;5041092;28;20615;-89
2023/10/24 08:20:43;;;;;;;1.60;1.10;;;17.80;99.90;;;;;;5030369;28;20742;-88
2023/10/24 08:23:08;;;;;;;1.33;1.10;;;17.80;99.90;;;;;;5041765;28;20177;-89
2023/10/24 08:25:34;;;;;;;1.07;0.80;;;17.80;99.90;;;;;;5032191;28;20341;-88
2023/10/24 08:28:00;;;;;;;2.10;1.13;;;17.80;99.90;;;;;;5042579;28;20463;-87
2023/10/24 08:30:27;;;;;;;2.63;1.10;;;17.80;99.90;;;;;;5030931;28;20165;-87
2023/10/24 08:32:53;;;;;;;1.77;1.00;;;17.80;99.90;;;;;;5042308;28;20485;-87
2023/10/24 08:35:19;;;;;;;0.80;0.80;;;17.80;99.90;;;;;;5031195;28;20287;-87
2023/10/24 08:37:44;;;;;;;1.73;1.20;;;17.80;99.90;;;;;;5048484;28;20322;-89
2023/10/24 08:40:10;;;;;;;1.80;1.10;;;17.80;99.90;;;;;;5035549;28;20425;-89
2023/10/24 08:42:36;;;;;;;3.07;1.20;;;17.80;99.90;;;;;;5028264;28;20287;-88
2023/10/24 08:45:04;;;;;;;1.10;1.00;;;17.80;99.90;;;;;;5037943;28;20183;-88
2023/10/24 08:47:32;;;;;;;2.17;1.00;;;17.80;99.90;;;;;;5033004;28;20183;-88
2023/10/24 08:50:01;;;;;;;1.20;1.00;;;17.80;99.90;;;;;;5032655;28;20245;-89
2023/10/24 08:52:30;;;;;;;1.30;1.20;;;17.80;99.90;;;;;;5025714;28;20177;-88
2023/10/24 08:55:00;;;;;;;1.60;1.20;;;17.80;99.90;;;;;;5033145;28;20581;-88
2023/10/24 08:57:30;;;;;;;1.90;1.20;;;17.80;99.90;;;;;;5033423;28;20185;-88
2023/10/24 08:59:57;;;;;;;1.57;1.00;;;17.80;99.90;;;;;;5031423;28;20645;-88
2023/10/24 09:02:23;;;;;;;1.10;1.00;;;17.80;99.90;;;;;;5032911;28;20200;-88
2023/10/24 09:04:52;;;;;;;1.40;1.00;;;17.90;99.90;;;;;;5030814;28;20353;-88
2023/10/24 09:07:18;;;;;;;1.67;1.10;;;17.90;99.90;;;;;;5035800;28;20184;-88
2023/10/24 09:09:43;;;;;;;1.20;1.10;;;17.90;99.90;;;;;;5046268;28;20180;-89
2023/10/24 09:12:14;;;;;;;1.23;1.10;;;17.90;99.90;;;;;;5036384;28;20183;-88
2023/10/24 09:14:45;;;;;;;1.10;1.00;;;17.90;99.90;;;;;;5044082;28;20585;-88
2023/10/24 09:17:15;;;;;;;1.90;1.27;;;17.90;99.90;;;;;;5034045;28;20452;-89
2023/10/24 09:19:42;;;;;;;1.40;1.23;;;17.90;99.90;;;;;;5007279;28;20518;-88
2023/10/24 09:22:09;;;;;;;1.70;1.40;;;17.90;99.90;;;;;;5034370;28;20200;-88
2023/10/24 09:24:35;;;;;;;1.70;1.10;;;17.90;99.90;;;;;;5045491;28;20178;-88
2023/10/24 09:27:01;;;;;;;1.30;1.20;;;17.90;99.90;;;;;;5032880;28;20320;-88
2023/10/24 09:29:29;;;;;;;1.47;1.10;;;17.90;99.90;;;;;;5055772;28;20196;-88
2023/10/24 09:31:58;;;;;;;1.70;1.10;;;17.90;99.90;;;;;;5034674;28;20557;-88
2023/10/24 09:34:27;;;;;;;1.87;1.10;;;17.90;99.90;;;;;;5045002;28;20176;-88
2023/10/24 09:37:04;;;;;;;1.20;1.10;;;17.90;99.90;;;;;;5036288;28;20391;-88
2023/10/24 09:39:30;;;;;;;1.40;1.13;;;17.90;99.90;;;;;;5045983;28;20206;-88
2023/10/24 09:41:56;;;;;;;1.27;1.00;;;17.90;99.90;;;;;;5040683;28;20208;-87
2023/10/24 09:44:23;;;;;;;1.13;1.00;;;17.90;99.90;;;;;;5028808;28;20209;-88
2023/10/24 09:46:53;;;;;;;2.23;1.20;;;17.90;99.90;;;;;;5030220;28;20410;-88
2023/10/24 09:49:20;;;;;;;1.20;1.10;;;17.90;99.90;;;;;;5041236;28;20697;-88
2023/10/24 09:51:46;;;;;;;1.27;1.17;;;17.90;99.90;;;;;;5042405;28;20360;-88
2023/10/24 09:54:12;;;;;;;3.00;1.20;;;17.90;99.90;;;;;;5040484;28;20172;-88
2023/10/24 09:56:39;;;;;;;1.90;1.30;;;17.90;99.90;;;;;;5040584;28;20395;-88
2023/10/24 09:59:06;;;;;;;2.50;1.37;;;17.90;99.90;;;;;;5035126;28;20172;-88
2023/10/24 10:01:32;;;;;;;1.30;1.00;;;18.00;99.90;;;;;;5045682;28;20258;-89
2023/10/24 10:04:00;;;;;;;1.63;0.97;;;18.00;99.90;;;;;;5034782;28;20558;-88
2023/10/24 10:06:30;;;;;;;5.50;1.23;;;18.00;99.90;;;;;;5043238;28;20604;-88
2023/10/24 10:08:59;;;;;;;1.67;1.20;;;18.00;99.90;;;;;;5031960;28;20183;-88
2023/10/24 10:11:27;;;;;;;1.47;1.20;;;18.00;99.90;;;;;;5044521;28;20188;-88
2023/10/24 10:14:02;;;;;;;1.23;1.10;;;18.00;99.90;;;;;;5033742;28;20390;-90
2023/10/24 10:16:50;;;;;;;1.63;1.23;;;18.00;99.90;;;;;;5044733;28;20172;-89
2023/10/24 10:19:28;;;;;;;1.33;0.93;;;18.00;99.90;;;;;;5033419;28;20179;-89
2023/10/24 10:22:18;;;;;;;1.03;1.00;;;18.00;99.90;;;;;;5047824;28;20203;-88
2023/10/24 10:24:49;;;;;;;1.70;1.20;;;18.00;99.90;;;;;;5034818;28;20177;-88
2023/10/24 10:27:49;;;;;;;2.20;1.10;;;18.10;99.90;;;;;;5027521;28;20178;-88
2023/10/24 10:30:26;;;;;;;2.30;1.17;;;18.10;99.90;;;;;;5042554;28;20183;-88
2023/10/24 10:33:10;;;;;;;1.77;1.23;;;18.10;99.90;;;;;;5043191;28;20172;-88
2023/10/24 10:35:55;;;;;;;1.37;1.10;;;18.10;99.90;;;;;;5037516;28;20412;-87
2023/10/24 10:38:40;;;;;;;1.73;1.00;;;18.10;99.90;;;;;;5039162;28;20180;-88
2023/10/24 10:41:23;;;;;;;2.50;1.10;;;18.10;99.90;;;;;;5031860;28;20230;-88
2023/10/24 10:43:50;;;;;;;5.83;1.10;;;18.10;99.90;;;;;;5036547;28;20165;-88
2023/10/24 10:46:26;;;;;;;1.23;1.10;;;18.10;99.90;;;;;;5037519;28;20440;-88
2023/10/24 10:48:52;;;;;;;2.50;1.20;;;18.20;99.90;;;;;;5035440;28;20574;-88
2023/10/24 10:51:23;;;;;;;1.80;1.20;;;18.20;99.90;;;;;;5024145;28;20745;-88
2023/10/24 10:54:10;;;;;;;1.40;1.20;;;18.20;99.90;;;;;;5025455;28;20176;-89
2023/10/24 10:56:39;;;;;;;2.00;1.20;;;18.20;99.90;;;;;;5026028;28;20176;-88
2023/10/24 10:59:08;;;;;;;1.40;1.17;;;18.20;99.90;;;;;;5028085;28;20211;-89
2023/10/24 11:01:54;;;;;;;2.07;1.20;;;18.20;99.90;;;;;;5026862;28;20204;-88
2023/10/24 11:04:20;;;;;;;1.23;1.07;;;18.20;99.90;;;;;;5027683;28;20716;-88
2023/10/24 11:06:53;;;;;;;1.50;1.20;;;18.20;99.90;;;;;;5025415;28;20275;-88
2023/10/24 11:09:23;;;;;;;1.50;1.30;;;18.20;99.90;;;;;;5023646;28;20264;-89
2023/10/24 11:12:23;;;;;;;1.33;1.00;;;18.30;99.90;;;;;;5034732;28;20180;-88
2023/10/24 11:15:07;;;;;;;1.20;1.00;;;18.30;99.90;;;;;;5032858;28;20200;-88
2023/10/24 11:17:33;;;;;;;1.70;1.17;;;18.30;99.90;;;;;;5039459;28;20270;-88
2023/10/24 11:20:00;;;;;;;1.10;1.00;;;18.30;99.90;;;;;;5033831;28;20172;-88
2023/10/24 11:22:26;;;;;;;1.23;1.00;;;18.30;99.90;;;;;;5037531;28;20463;-88
2023/10/24 11:24:52;;;;;;;3.83;1.10;;;18.30;99.90;;;;;;5037684;28;20231;-88
2023/10/24 11:27:22;;;;;;;1.83;1.20;;;18.30;99.90;;;;;;5034935;28;20208;-88
2023/10/24 11:29:49;;;;;;;1.10;1.00;;;18.30;99.90;;;;;;5039428;28;20183;-88
2023/10/24 11:32:16;;;;;;;1.20;1.10;;;18.30;99.90;;;;;;5044603;28;20176;-88
2023/10/24 11:34:42;;;;;;;1.40;1.10;;;18.30;99.90;;;;;;5043335;28;20456;-88
2023/10/24 11:37:09;;;;;;;1.30;1.00;;;18.30;99.90;;;;;;5032367;28;20609;-88
2023/10/24 11:39:35;;;;;;;2.13;1.10;;;18.30;99.90;;;;;;5041690;28;20192;-88
2023/10/24 11:42:02;;;;;;;1.30;1.20;;;18.40;99.90;;;;;;5030168;28;20228;-88
2023/10/24 11:44:28;;;;;;;1.93;1.00;;;18.40;99.90;;;;;;5042912;28;20168;-88
2023/10/24 11:46:54;;;;;;;1.40;1.10;;;18.30;99.90;;;;;;5036790;28;20432;-87
2023/10/24 11:49:19;;;;;;;1.77;1.20;;;18.30;99.90;;;;;;5026040;28;20454;-88
2023/10/24 11:51:46;;;;;;;1.83;1.13;;;18.40;99.90;;;;;;5037135;28;20541;-88
2023/10/24 11:54:11;;;;;;;1.57;1.20;;;18.30;99.90;;;;;;5025351;28;20219;-88
2023/10/24 11:56:38;;;;;;;1.37;0.90;;;18.40;99.90;;;;;;5025100;28;20181;-88
2023/10/24 11:59:04;;;;;;;1.40;1.03;;;18.40;99.90;;;;;;5044196;28;20565;-87
2023/10/24 12:01:32;;;;;;;1.90;1.20;;;18.40;99.90;;;;;;5035671;28;20288;-88
2023/10/24 12:03:59;;;;;;;1.47;1.30;;;18.30;99.90;;;;;;5037837;28;20501;-88
2023/10/24 12:06:29;;;;;;;1.27;1.07;;;18.40;99.90;;;;;;5035525;28;20169;-88
2023/10/24 12:08:55;;;;;;;2.03;1.10;;;18.40;99.90;;;;;;5036264;28;20242;-88
2023/10/24 12:11:23;;;;;;;2.00;1.20;;;18.40;99.90;;;;;;5043043;28;20186;-88
2023/10/24 12:13:50;;;;;;;1.20;1.00;;;18.30;99.90;;;;;;5035675;28;20286;-88
2023/10/24 12:16:17;;;;;;;1.23;1.10;;;18.40;99.90;;;;;;5044690;28;20398;-88
2023/10/24 12:18:43;;;;;;;1.40;1.20;;;18.40;99.90;;;;;;5034685;28;20177;-88
2023/10/24 12:21:10;;;;;;;1.03;1.00;;;18.40;99.90;;;;;;5026107;28;20633;-88
2023/10/24 12:23:36;;;;;;;1.10;1.00;;;18.40;99.90;;;;;;5026310;28;20444;-88
2023/10/24 12:26:06;;;;;;;4.43;1.20;;;18.40;99.90;;;;;;5025915;28;20349;-87
2023/10/24 12:28:36;;;;;;;1.43;1.20;;;18.30;99.90;;;;;;5034873;28;20345;-87
2023/10/24 12:31:03;;;;;;;1.27;1.13;;;18.40;99.90;;;;;;5023325;28;20180;-87
2023/10/24 12:33:29;;;;;;;1.30;0.83;;;18.30;99.90;;;;;;5032174;28;20168;-86
2023/10/24 12:35:59;;;;;;;1.60;1.10;;;18.40;99.90;;;;;;5044711;28;20187;-87
2023/10/24 12:38:24;;;;;;;1.50;1.03;;;18.40;99.90;;;;;;5047747;28;20207;-87
2023/10/24 12:40:50;;;;;;;1.20;1.10;;;18.40;99.90;;;;;;5032674;28;20208;-87
2023/10/24 12:43:16;;;;;;;1.20;1.10;;;18.40;99.90;;;;;;5039393;28;20429;-87
2023/10/24 12:45:42;;;;;;;1.27;1.17;;;18.40;99.90;;;;;;5044577;28;20199;-88
2023/10/24 12:48:11;;;;;;;3.03;1.33;;;18.40;99.90;;;;;;5033658;28;20469;-87